Time;durP1;ratioP1;P1;durP2;ratioP2;P2;SDS_P1;SDS_P2;PMS_P1;PMS_P2;Temp;Humidity;BMP_temperature;BMP_pressure;BME280_temperature;BME280_humidity;BME280_pressure;Samples;Min_cycle;Max_cycle;Signal;HPM_P1;HPM_P2
2021/06/05 02:12:20;;;;;;;;;;;;;;;13.89;100.00;99923.97;5013822;28;19925;-83
2021/06/05 02:14:53;;;;;;;;;;;;;;;13.87;100.00;99926.72;5015736;28;19921;-82
2021/06/05 02:17:20;;;;;;;;;;;;;;;13.79;100.00;99924.47;5017180;28;19937;-82
2021/06/05 02:19:48;;;;;;;;;;;;;;;13.81;100.00;99924.38;5017706;28;19921;-82
2021/06/05 02:22:15;;;;;;;;;;;;;;;13.86;100.00;99918.81;4999497;28;20245;-81
2021/06/05 02:24:43;;;;;;;;;;;;;;;13.87;100.00;99921.38;5000488;28;20306;-82
2021/06/05 02:27:09;;;;;;;;;;;;;;;13.90;100.00;99925.69;5018286;28;19929;-84
2021/06/05 02:29:36;;;;;;;;;;;;;;;13.91;100.00;99916.75;5004403;28;19933;-83
2021/06/05 02:32:04;;;;;;;;;;;;;;;13.86;100.00;99919.66;5004086;28;20388;-84
2021/06/05 02:34:30;;;;;;;;;;;;;;;13.91;100.00;99920.28;5022355;28;19921;-83
2021/06/05 02:37:00;;;;;;;;;;;;;;;13.90;100.00;99926.53;5022110;28;19925;-90
2021/06/05 02:39:26;;;;;;;;;;;;;;;13.90;100.00;99923.03;5017425;28;19922;-85
2021/06/05 02:41:52;;;;;;;;;;;;;;;13.88;100.00;99933.78;4999557;28;20212;-85
2021/06/05 02:44:19;;;;;;;;;;;;;;;13.83;100.00;99935.78;5017778;28;19921;-85
2021/06/05 02:46:45;;;;;;;;;;;;;;;13.75;100.00;99932.69;5017757;28;19957;-86
2021/06/05 02:49:19;;;;;;;;;;;;;;;13.74;100.00;99931.00;5000945;28;19921;-85
2021/06/05 02:51:47;;;;;;;;;;;;;;;13.73;100.00;99921.28;5017450;28;19922;-85
2021/06/05 02:54:13;;;;;;;;;;;;;;;13.85;100.00;99917.94;4998966;28;19928;-85
2021/06/05 02:56:38;;;;;;;;;;;;;;;13.88;100.00;99914.25;4999603;28;19944;-85
2021/06/05 02:59:04;;;;;;;;;;;;;;;13.84;100.00;99916.22;5016420;28;19964;-86
2021/06/05 03:01:29;;;;;;;;;;;;;;;13.88;100.00;99916.91;4999186;28;19928;-85
2021/06/05 03:03:55;;;;;;;;;;;;;;;13.79;100.00;99915.63;5016708;28;20339;-85
2021/06/05 03:06:20;;;;;;;;;;;;;;;13.89;100.00;99915.97;5015970;28;19921;-86
2021/06/05 03:08:46;;;;;;;;;;;;;;;13.90;100.00;99917.72;4999976;28;19925;-85
2021/06/05 03:11:15;;;;;;;;;;;;;;;13.89;100.00;99919.50;5017166;28;19975;-86
2021/06/05 03:13:41;;;;;;;;;;;;;;;13.87;100.00;99916.06;4998740;28;20315;-85
2021/06/05 03:16:06;;;;;;;;;;;;;;;13.88;100.00;99911.56;4998519;28;19979;-85
2021/06/05 03:18:32;;;;;;;;;;;;;;;13.83;100.00;99919.81;4998817;28;20021;-86
2021/06/05 03:20:58;;;;;;;;;;;;;;;13.79;100.00;99918.28;4999275;28;20007;-86
2021/06/05 03:23:24;;;;;;;;;;;;;;;13.80;100.00;99909.31;5016507;28;19918;-85
2021/06/05 03:25:51;;;;;;;;;;;;;;;13.88;100.00;99917.78;5015933;28;20019;-85
2021/06/05 03:28:18;;;;;;;;;;;;;;;13.83;100.00;99905.66;5017040;28;20304;-85
2021/06/05 03:30:43;;;;;;;;;;;;;;;13.86;100.00;99900.16;4999357;28;20468;-85
2021/06/05 03:33:09;;;;;;;;;;;;;;;13.79;100.00;99902.31;5015920;28;19956;-85
2021/06/05 03:35:34;;;;;;;;;;;;;;;13.81;100.00;99901.25;4998240;28;19935;-85
2021/06/05 03:38:00;;;;;;;;;;;;;;;13.89;100.00;99898.19;4998582;28;19937;-85
2021/06/05 03:40:27;;;;;;;;;;;;;;;13.85;100.00;99896.66;4999039;28;19943;-86
2021/06/05 03:42:52;;;;;;;;;;;;;;;13.85;100.00;99896.66;4999749;28;20339;-86
2021/06/05 03:45:18;;;;;;;;;;;;;;;13.89;100.00;99895.53;4997534;28;19922;-84
2021/06/05 03:47:46;;;;;;;;;;;;;;;13.88;100.00;99900.94;5016685;28;20012;-84
2021/06/05 03:50:11;;;;;;;;;;;;;;;13.88;100.00;99888.50;4999446;28;19921;-84
2021/06/05 03:52:37;;;;;;;;;;;;;;;13.86;100.00;99885.03;5016546;28;19979;-85
2021/06/05 03:55:03;;;;;;;;;;;;;;;13.85;100.00;99891.31;5016346;28;19922;-84
2021/06/05 03:57:28;;;;;;;;;;;;;;;13.84;100.00;99894.91;5015795;28;20482;-83
2021/06/05 07:38:17;;;;;;;;;;;;;;;13.96;100.00;99987.47;4935179;29;20055;-83
2021/06/05 07:43:18;;;;;;;;;;;;;;;13.83;100.00;99988.22;4996235;23;19937;-84
2021/06/05 07:45:43;;;;;;;;;;;;;;;13.79;100.00;99982.19;4942805;29;20293;-82
2021/06/05 07:48:09;;;;;;;;;;;;;;;13.70;100.00;99980.00;4959937;29;19985;-82
2021/06/05 07:50:35;;;;;;;;;;;;;;;13.62;100.00;99981.28;4960245;28;19923;-82
2021/06/05 07:53:00;;;;;;;;;;;;;;;13.63;100.00;99980.34;4959729;28;19983;-81
2021/06/05 07:55:27;;;;;;;;;;;;;;;13.77;100.00;99978.75;4959892;28;20017;-82
2021/06/05 07:57:52;;;;;;;;;;;;;;;13.69;100.00;99976.50;4959654;29;19927;-82
2021/06/05 08:00:19;;;;;;;;;;;;;;;13.70;100.00;99985.34;4959339;29;20009;-81
2021/06/05 08:02:44;;;;;;;;;;;;;;;13.80;100.00;99981.22;4959728;29;19922;-81
2021/06/05 08:05:10;;;;;;;;;;;;;;;13.72;100.00;99980.78;4960247;29;19919;-81
2021/06/05 08:07:35;;;;;;;;;;;;;;;13.79;100.00;99982.19;4959816;29;19923;-81
2021/06/05 08:10:01;;;;;;;;;;;;;;;13.83;100.00;99983.72;4959566;29;20360;-81
2021/06/05 08:12:27;;;;;;;;;;;;;;;13.77;100.00;99989.41;4959288;29;19919;-81
2021/06/05 08:14:52;;;;;;;;;;;;;;;13.62;100.00;99989.28;4943299;29;19928;-82
2021/06/05 08:17:18;;;;;;;;;;;;;;;13.62;100.00;99981.28;4959040;29;20294;-81
2021/06/05 08:19:43;;;;;;;;;;;;;;;13.66;100.00;99982.00;4957931;28;19933;-82
2021/06/05 08:22:08;;;;;;;;;;;;;;;13.74;100.00;99984.25;4955848;29;19926;-82
2021/06/05 08:24:34;;;;;;;;;;;;;;;13.81;100.00;99985.63;4957486;29;19923;-83
2021/06/05 08:26:59;;;;;;;;;;;;;;;13.86;100.00;99988.06;4953632;29;20025;-81
2021/06/05 08:29:24;;;;;;;;;;;;;;;13.84;100.00;99990.78;4955450;29;20183;-81
2021/06/05 08:31:50;;;;;;;;;;;;;;;13.78;100.00;99986.63;4941234;29;19949;-81
2021/06/05 08:34:16;;;;;;;;;;;;;;;13.84;100.00;99988.13;4954703;29;19922;-81
2021/06/05 08:36:42;;;;;;;;;;;;;;;13.87;100.00;99979.97;4967811;28;19926;-81
2021/06/05 08:39:08;;;;;;;;;;;;;;;13.86;100.00;99983.56;4958569;29;19934;-81
2021/06/05 08:41:39;;;;;;;;;;;;;;;13.89;100.00;99986.06;4953343;28;20210;-83
2021/06/05 08:44:16;;;;;;;;;;;;;;;13.78;100.00;99985.78;4953282;29;20187;-81
2021/06/05 08:46:44;;;;;;;;;;;;;;;13.61;100.00;99987.53;4957970;29;19933;-83
2021/06/05 08:49:15;;;;;;;;;;;;;;;13.66;100.00;99986.44;4940603;29;19982;-81
2021/06/05 08:51:44;;;;;;;;;;;;;;;13.51;100.00;99996.09;4936299;29;19923;-84
2021/06/05 08:54:27;;;;;;;;;;;;;;;13.46;100.00;99988.34;4959261;29;19922;-83
2021/06/05 08:56:53;;;;;;;;;;;;;;;13.55;100.00;99984.34;4951431;29;20321;-82
2021/06/05 08:59:22;;;;;;;;;;;;;;;13.69;100.00;99987.16;4936011;29;20069;-84
2021/06/05 09:01:48;;;;;;;;;;;;;;;13.71;100.00;99989.72;4942831;29;19930;-82
2021/06/05 09:04:17;;;;;;;;;;;;;;;13.77;100.00;99994.75;4960990;28;19938;-82
2021/06/05 09:06:47;;;;;;;;;;;;;;;13.76;100.00;99993.00;4962338;29;20302;-81
2021/06/05 09:09:15;;;;;;;;;;;;;;;13.84;100.00;99996.13;4961843;29;20210;-81
2021/06/05 09:11:41;;;;;;;;;;;;;;;13.83;100.00;99993.53;4961188;28;19922;-81
2021/06/05 09:14:07;;;;;;;;;;;;;;;13.78;100.00;99986.63;4945180;29;19923;-81
2021/06/05 09:16:37;;;;;;;;;;;;;;;13.74;100.00;99995.75;4935584;29;19927;-81
2021/06/05 09:19:12;;;;;;;;;;;;;;;13.88;100.00;99994.16;4957980;29;20385;-81
2021/06/05 09:21:46;;;;;;;;;;;;;;;13.87;100.00;99993.28;4943619;29;19919;-81
2021/06/05 09:24:14;;;;;;;;;;;;;;;13.94;100.00;99997.34;4933795;29;20210;-81
2021/06/05 09:26:40;;;;;;;;;;;;;;;13.98;100.00;99995.41;4961352;28;20209;-81
2021/06/05 09:29:06;;;;;;;;;;;;;;;14.00;100.00;99980.19;4944756;29;19999;-81
2021/06/05 09:31:31;;;;;;;;;;;;;;;13.97;100.00;99986.53;4945102;28;19922;-81
2021/06/05 09:33:57;;;;;;;;;;;;;;;14.08;100.00;99983.28;4961752;29;19929;-80
2021/06/05 09:36:31;;;;;;;;;;;;;;;14.04;100.00;99991.53;4932240;29;21821;-82
2021/06/05 09:39:01;;;;;;;;;;;;;;;14.09;100.00;99987.69;4960502;29;19923;-81
2021/06/05 09:41:35;;;;;;;;;;;;;;;13.98;100.00;99993.59;4961128;29;20223;-81
2021/06/05 09:44:36;;;;;;;;;;;;;;;14.03;100.00;99989.81;4960131;29;20290;-82
2021/06/05 09:47:06;;;;;;;;;;;;;;;13.97;100.00;99991.84;4903351;29;19923;-81
2021/06/05 09:49:38;;;;;;;;;;;;;;;14.06;100.00;99979.84;4931731;29;19930;-81
2021/06/05 09:52:09;;;;;;;;;;;;;;;14.09;100.00;99987.69;4937057;29;19922;-81
2021/06/05 09:54:37;;;;;;;;;;;;;;;13.55;100.00;99984.34;4958707;28;19931;-83
2021/06/05 09:57:17;;;;;;;;;;;;;;;13.96;100.00;99975.94;4958446;29;19926;-83
2021/06/05 09:59:56;;;;;;;;;;;;;;;13.84;100.00;99979.28;4960865;29;19922;-83
2021/06/05 10:02:22;;;;;;;;;;;;;;;14.11;100.00;99976.94;4938872;29;20016;-83
2021/06/05 10:05:28;;;;;;;;;;;;;;;14.00;100.00;99980.19;4961755;28;19922;-83
2021/06/05 10:07:54;;;;;;;;;;;;;;;14.16;100.00;99981.06;4835840;29;19959;-83
2021/06/05 10:10:23;;;;;;;;;;;;;;;14.11;100.00;99982.28;4836356;29;20299;-85
2021/06/05 10:12:50;;;;;;;;;;;;;;;13.96;100.00;99986.59;4882372;29;19922;-83
2021/06/05 10:15:20;;;;;;;;;;;;;;;13.86;100.00;99982.72;4956394;28;19934;-85
2021/06/05 10:17:46;;;;;;;;;;;;;;;13.92;100.00;99983.25;4961730;28;19949;-83
2021/06/05 10:20:30;;;;;;;;;;;;;;;14.01;100.00;99986.34;4960244;28;19961;-88
2021/06/05 10:22:57;;;;;;;;;;;;;;;14.02;100.00;99985.44;4959949;28;19923;-83
2021/06/05 10:25:40;;;;;;;;;;;;;;;14.04;100.00;99984.41;4936915;29;19922;-85
2021/06/05 10:28:07;;;;;;;;;;;;;;;14.10;100.00;99985.88;4960266;28;20312;-83
2021/06/05 10:30:32;;;;;;;;;;;;;;;14.01;100.00;99984.56;4959576;28;20302;-83
2021/06/05 10:32:59;;;;;;;;;;;;;;;14.03;100.00;99989.81;4939675;29;19926;-85
2021/06/05 10:35:36;;;;;;;;;;;;;;;13.75;100.00;99985.94;4933893;29;19989;-83
2021/06/05 10:38:13;;;;;;;;;;;;;;;13.76;100.00;99990.34;4959756;28;19926;-85
2021/06/05 10:40:38;;;;;;;;;;;;;;;13.96;100.00;99987.47;4960115;29;19932;-83
2021/06/05 10:43:06;;;;;;;;;;;;;;;14.13;100.00;99985.69;4959854;29;20277;-84
2021/06/05 10:45:34;;;;;;;;;;;;;;;14.08;100.00;99977.94;4959040;28;19933;-83
2021/06/05 10:48:04;;;;;;;;;;;;;;;14.12;100.00;99974.19;4957394;28;19922;-82
2021/06/05 10:50:38;;;;;;;;;;;;;;;13.99;100.00;99974.00;4957675;29;19931;-82
2021/06/05 10:53:16;;;;;;;;;;;;;;;13.93;100.00;99979.66;4956768;28;20017;-83
2021/06/05 10:55:45;;;;;;;;;;;;;;;13.99;100.00;99984.66;4955496;28;19935;-85
2021/06/05 10:58:25;;;;;;;;;;;;;;;13.99;100.00;99982.00;4957323;29;19977;-83
2021/06/05 11:00:52;;;;;;;;;;;;;;;13.96;100.00;99984.81;4960125;29;19962;-84
2021/06/05 11:03:23;;;;;;;;;;;;;;;13.83;100.00;99982.88;4963060;28;19934;-83
2021/06/05 11:06:03;;;;;;;;;;;;;;;13.86;100.00;99983.56;4959607;29;19941;-83
2021/06/05 11:08:37;;;;;;;;;;;;;;;13.76;100.00;99979.69;4958050;28;20306;-85
2021/06/05 11:11:02;;;;;;;;;;;;;;;13.83;100.00;99982.88;4957787;29;20416;-87
2021/06/05 11:13:35;;;;;;;;;;;;;;;13.79;100.00;99985.72;4938506;29;19926;-86
2021/06/05 11:16:05;;;;;;;;;;;;;;;13.88;100.00;99979.03;4961677;28;19922;-86
2021/06/05 11:18:33;;;;;;;;;;;;;;;13.86;100.00;99983.56;4961235;29;19962;-83
2021/06/05 11:21:18;;;;;;;;;;;;;;;13.88;100.00;99973.72;4959366;29;19942;-83
2021/06/05 11:24:03;;;;;;;;;;;;;;;13.83;100.00;99977.56;4960037;29;19922;-84
2021/06/05 11:26:38;;;;;;;;;;;;;;;13.93;100.00;99974.31;4959542;28;19934;-84
2021/06/05 11:29:24;;;;;;;;;;;;;;;13.70;100.00;99970.22;4933199;29;20013;-83
2021/06/05 11:31:52;;;;;;;;;;;;;;;13.73;100.00;99982.50;4956774;28;19930;-83
2021/06/05 11:34:29;;;;;;;;;;;;;;;13.68;100.00;99974.75;4959410;28;19926;-85
2021/06/05 11:37:15;;;;;;;;;;;;;;;13.74;100.00;99978.91;4959502;29;19977;-83
2021/06/05 11:39:41;;;;;;;;;;;;;;;13.98;100.00;99982.06;4919096;29;19930;-84
2021/06/05 11:42:16;;;;;;;;;;;;;;;13.91;100.00;99978.00;4958741;28;19926;-83
2021/06/05 11:44:42;;;;;;;;;;;;;;;13.96;100.00;99979.50;4957966;29;19926;-84
2021/06/05 11:47:17;;;;;;;;;;;;;;;13.97;100.00;99981.19;4936662;29;20417;-84
2021/06/05 11:49:47;;;;;;;;;;;;;;;13.81;100.00;99981.16;4956484;29;20290;-83
2021/06/05 11:52:27;;;;;;;;;;;;;;;13.76;100.00;99980.53;4957141;29;19923;-84
2021/06/05 11:54:54;;;;;;;;;;;;;;;13.86;100.00;99988.06;4954193;29;19941;-84
2021/06/05 11:57:27;;;;;;;;;;;;;;;13.87;100.00;99985.31;4958056;28;19993;-86
2021/06/05 11:59:58;;;;;;;;;;;;;;;13.83;100.00;99978.41;4958034;29;19922;-86
2021/06/05 12:02:25;;;;;;;;;;;;;;;13.32;100.00;99981.00;4958849;28;20017;-84
2021/06/05 12:05:05;;;;;;;;;;;;;;;12.50;100.00;99993.00;4951474;29;19922;-84
2021/06/05 12:07:34;;;;;;;;;;;;;;;13.15;100.00;99984.56;4937879;29;19991;-83
2021/06/05 12:10:00;;;;;;;;;;;;;;;12.84;100.00;99990.53;4956100;28;19946;-85
2021/06/05 12:12:35;;;;;;;;;;;;;;;13.37;100.00;99991.47;4958279;29;19923;-84
2021/06/05 12:15:09;;;;;;;;;;;;;;;13.31;100.00;99986.44;4956277;29;19923;-85
2021/06/05 12:17:40;;;;;;;;;;;;;;;13.44;100.00;99993.72;4936432;29;19941;-84
2021/06/05 12:20:20;;;;;;;;;;;;;;;13.34;100.00;99987.19;4959007;29;19922;-84
2021/06/05 12:22:48;;;;;;;;;;;;;;;13.42;100.00;99986.78;4957834;29;19962;-83
2021/06/05 12:25:28;;;;;;;;;;;;;;;13.30;100.00;99984.72;4956821;28;19945;-83
2021/06/05 12:28:05;;;;;;;;;;;;;;;13.60;100.00;99983.16;4954637;28;19999;-83
2021/06/05 12:30:31;;;;;;;;;;;;;;;13.49;100.00;99985.50;4934609;29;19922;-83
2021/06/05 12:33:01;;;;;;;;;;;;;;;13.43;100.00;99997.34;4939260;29;20203;-84
2021/06/05 12:35:26;;;;;;;;;;;;;;;13.43;100.00;99997.34;4954506;28;20199;-83
2021/06/05 12:37:53;;;;;;;;;;;;;;;13.20;100.00;99985.19;4940019;28;19938;-84
2021/06/05 12:40:23;;;;;;;;;;;;;;;13.57;100.00;99987.78;4940435;29;19942;-83
2021/06/05 12:42:49;;;;;;;;;;;;;;;13.52;100.00;99984.50;4961982;28;19973;-84
2021/06/05 12:45:19;;;;;;;;;;;;;;;13.15;100.00;99989.88;4963817;28;19930;-84
2021/06/05 12:47:47;;;;;;;;;;;;;;;13.47;100.00;99992.72;4960803;29;19950;-83
2021/06/05 12:50:15;;;;;;;;;;;;;;;13.29;100.00;99990.97;4961497;29;20302;-84
2021/06/05 12:52:44;;;;;;;;;;;;;;;12.74;100.00;99992.78;4961781;29;19922;-83
2021/06/05 12:55:16;;;;;;;;;;;;;;;13.02;100.00;99994.94;4961234;28;19933;-84
2021/06/05 12:57:43;;;;;;;;;;;;;;;12.80;100.00;99988.97;4961005;29;20218;-83
2021/06/05 13:00:20;;;;;;;;;;;;;;;12.78;100.00;99999.69;4953906;29;19923;-86
2021/06/05 13:02:46;;;;;;;;;;;;;;;11.93;100.00;99994.78;4956447;29;19931;-83
2021/06/05 13:05:22;;;;;;;;;;;;;;;12.43;100.00;99996.91;4938854;29;19922;-83
2021/06/05 13:07:49;;;;;;;;;;;;;;;12.03;100.00;100000.53;4960289;28;20278;-82
2021/06/05 13:10:26;;;;;;;;;;;;;;;12.69;100.00;100005.44;4959017;29;19934;-83
2021/06/05 13:13:06;;;;;;;;;;;;;;;12.99;100.00;100004.88;4941227;29;19979;-83
2021/06/05 13:15:33;;;;;;;;;;;;;;;13.39;100.00;100008.22;4958883;29;20310;-83
2021/06/05 13:17:58;;;;;;;;;;;;;;;13.24;100.00;100002.72;4937551;28;19926;-83
2021/06/05 13:20:24;;;;;;;;;;;;;;;13.38;100.00;100006.50;4953371;28;19922;-83
2021/06/05 13:22:50;;;;;;;;;;;;;;;13.34;100.00;100012.91;4943343;29;20017;-83
2021/06/05 13:25:15;;;;;;;;;;;;;;;13.81;100.00;100007.78;4956922;28;20294;-83
2021/06/05 13:28:01;;;;;;;;;;;;;;;13.29;100.00;100014.91;4958838;29;19929;-82
2021/06/05 13:30:35;;;;;;;;;;;;;;;13.35;100.00;100011.97;4960281;28;19922;-82
2021/06/05 13:33:01;;;;;;;;;;;;;;;13.66;100.00;100011.28;4937298;29;19989;-82
2021/06/05 13:35:46;;;;;;;;;;;;;;;13.58;100.00;100011.66;4943060;29;20077;-83
2021/06/05 13:38:18;;;;;;;;;;;;;;;13.87;100.00;100006.63;4941565;29;20329;-82
2021/06/05 13:40:45;;;;;;;;;;;;;;;13.99;100.00;100005.97;4941061;29;20065;-83
2021/06/05 13:43:11;;;;;;;;;;;;;;;14.05;100.00;100003.91;4958598;29;19931;-83
2021/06/05 13:45:37;;;;;;;;;;;;;;;13.77;100.00;100010.72;4955003;29;20353;-82
2021/06/05 13:48:04;;;;;;;;;;;;;;;13.80;100.00;100006.09;4939758;28;19922;-82
2021/06/05 13:50:30;;;;;;;;;;;;;;;13.86;100.00;100004.03;4937186;28;19937;-82
2021/06/05 13:53:07;;;;;;;;;;;;;;;13.98;100.00;100014.03;4948651;29;20188;-80
2021/06/05 13:55:35;;;;;;;;;;;;;;;13.37;100.00;100018.97;4932689;29;19923;-83
2021/06/05 13:58:00;;;;;;;;;;;;;;;12.91;100.00;100015.91;4922196;29;20014;-83
2021/06/05 14:00:27;;;;;;;;;;;;;;;13.44;100.00;100019.50;4919159;29;19979;-82
2021/06/05 14:02:52;;;;;;;;;;;;;;;13.27;100.00;100017.66;4934468;29;20294;-83
2021/06/05 14:05:18;;;;;;;;;;;;;;;12.49;100.00;100020.53;4935884;29;20017;-84
2021/06/05 14:07:44;;;;;;;;;;;;;;;13.05;100.00;100023.19;4932160;29;20580;-86
2021/06/05 14:10:10;;;;;;;;;;;;;;;13.56;100.00;100020.66;4932287;29;19942;-83
2021/06/05 14:12:37;;;;;;;;;;;;;;;13.49;100.00;100017.47;4929928;29;20269;-82
2021/06/05 14:15:03;;;;;;;;;;;;;;;13.43;100.00;100012.44;4947109;29;19933;-82
2021/06/05 14:17:28;;;;;;;;;;;;;;;13.69;100.00;100015.56;4948063;29;19927;-83
2021/06/05 14:19:54;;;;;;;;;;;;;;;13.48;100.00;100015.72;4950029;29;19941;-83
2021/06/05 14:22:20;;;;;;;;;;;;;;;13.53;100.00;100018.16;4956158;28;20298;-82
2021/06/05 14:24:45;;;;;;;;;;;;;;;13.73;100.00;100011.81;4950900;28;20257;-84
2021/06/05 14:27:12;;;;;;;;;;;;;;;13.76;100.00;100003.66;4952240;28;20005;-83
2021/06/05 14:29:37;;;;;;;;;;;;;;;13.90;100.00;100005.59;4951017;28;20245;-83
2021/06/05 14:32:03;;;;;;;;;;;;;;;13.72;100.00;100012.75;4954936;28;20022;-82
2021/06/05 14:34:28;;;;;;;;;;;;;;;13.69;100.00;100013.78;4950709;28;19935;-83
2021/06/05 14:36:54;;;;;;;;;;;;;;;13.17;100.00;100016.41;4952200;28;20297;-83
2021/06/05 14:39:20;;;;;;;;;;;;;;;13.44;100.00;100024.81;4951189;28;19930;-82
2021/06/05 14:41:56;;;;;;;;;;;;;;;13.38;100.00;100017.16;4952284;28;19931;-82
2021/06/05 14:44:24;;;;;;;;;;;;;;;12.99;100.00;100018.19;4938133;29;20009;-83
2021/06/05 14:46:50;;;;;;;;;;;;;;;12.95;100.00;100012.13;4953303;28;19931;-84
2021/06/05 14:49:17;;;;;;;;;;;;;;;13.03;100.00;100022.41;4935526;29;19931;-82
2021/06/05 14:51:43;;;;;;;;;;;;;;;12.91;100.00;100026.53;4933114;29;19934;-83
2021/06/05 14:54:10;;;;;;;;;;;;;;;12.99;100.00;100021.69;4954747;28;19932;-83
2021/06/05 14:56:36;;;;;;;;;;;;;;;12.78;100.00;100031.59;4952291;28;19930;-82
2021/06/05 14:59:02;;;;;;;;;;;;;;;12.58;100.00;100027.22;4956425;28;19933;-83
2021/06/05 15:01:27;;;;;;;;;;;;;;;12.53;100.00;100030.06;4932162;28;19922;-83
2021/06/05 15:03:52;;;;;;;;;;;;;;;12.59;100.00;100031.59;4949126;28;19992;-85
2021/06/05 15:06:18;;;;;;;;;;;;;;;12.73;100.00;100033.56;4949126;28;19926;-82
2021/06/05 15:08:44;;;;;;;;;;;;;;;11.68;100.00;100026.81;4951178;28;19926;-83
2021/06/05 15:11:09;;;;;;;;;;;;;;;12.63;100.00;100027.84;4935247;28;19938;-83
2021/06/05 15:13:34;;;;;;;;;;;;;;;13.15;100.00;100024.47;4948902;29;20061;-82
2021/06/05 15:16:00;;;;;;;;;;;;;;;12.75;100.00;100034.38;4951823;28;20254;-83
2021/06/05 15:18:27;;;;;;;;;;;;;;;12.69;100.00;100042.66;4951030;29;20312;-83
2021/06/05 15:20:53;;;;;;;;;;;;;;;12.46;100.00;100047.25;4939111;28;19922;-83
2021/06/05 15:23:20;;;;;;;;;;;;;;;12.09;100.00;100038.28;4954565;28;20018;-82
2021/06/05 15:25:46;;;;;;;;;;;;;;;12.41;100.00;100041.28;4949892;29;19922;-83
2021/06/05 15:28:12;;;;;;;;;;;;;;;12.88;100.00;100040.81;4950732;29;20268;-81
2021/06/05 15:30:39;;;;;;;;;;;;;;;12.39;100.00;100044.97;4931844;29;19939;-82
2021/06/05 15:33:06;;;;;;;;;;;;;;;12.07;100.00;100042.81;4952016;28;20013;-83
2021/06/05 15:35:33;;;;;;;;;;;;;;;12.69;100.00;100040.84;4931327;28;19930;-82
2021/06/05 15:37:58;;;;;;;;;;;;;;;12.62;100.00;100049.19;4949602;29;20337;-82
2021/06/05 15:40:25;;;;;;;;;;;;;;;12.69;100.00;100048.81;4932739;28;19930;-82
2021/06/05 15:42:50;;;;;;;;;;;;;;;13.09;100.00;100041.56;4950924;28;19937;-83
2021/06/05 15:45:20;;;;;;;;;;;;;;;12.98;100.00;100049.22;4950699;29;19923;-83
2021/06/05 15:47:45;;;;;;;;;;;;;;;13.14;100.00;100048.47;4950793;28;19934;-83
2021/06/05 15:50:13;;;;;;;;;;;;;;;13.32;100.00;100052.88;4947710;29;19934;-83
2021/06/05 15:52:38;;;;;;;;;;;;;;;13.38;100.00;100057.06;4950734;28;19933;-81
2021/06/05 15:55:05;;;;;;;;;;;;;;;12.91;100.00;100053.13;4947928;28;19922;-83
2021/06/05 15:57:31;;;;;;;;;;;;;;;12.93;100.00;100061.03;4947140;29;19938;-83
2021/06/05 15:59:56;;;;;;;;;;;;;;;13.38;100.00;100059.72;4949479;28;20242;-83
2021/06/05 16:02:22;;;;;;;;;;;;;;;13.25;100.00;100059.44;4930902;28;20012;-86
2021/06/05 16:04:48;;;;;;;;;;;;;;;13.55;100.00;100054.41;4949241;28;19941;-82
2021/06/05 16:07:13;;;;;;;;;;;;;;;13.51;100.00;100050.16;4946277;28;19927;-81
2021/06/05 16:09:39;;;;;;;;;;;;;;;13.72;100.00;100050.00;4949689;28;19956;-82
2021/06/05 16:12:04;;;;;;;;;;;;;;;13.70;100.00;100059.91;4946456;29;20354;-82
2021/06/05 16:14:30;;;;;;;;;;;;;;;13.79;100.00;100051.44;4931168;29;20001;-83
2021/06/05 16:16:59;;;;;;;;;;;;;;;13.78;100.00;100055.03;4933377;29;20406;-82
2021/06/05 16:19:26;;;;;;;;;;;;;;;14.02;100.00;100041.38;4931611;29;20309;-82
2021/06/05 16:21:53;;;;;;;;;;;;;;;14.01;100.00;100044.97;4956180;28;19921;-82
2021/06/05 16:24:21;;;;;;;;;;;;;;;13.81;100.00;100046.88;4945697;28;19922;-82
2021/06/05 16:26:47;;;;;;;;;;;;;;;13.83;100.00;100047.66;4947327;29;19931;-83
2021/06/05 16:29:13;;;;;;;;;;;;;;;13.96;100.00;100050.53;4944782;28;19923;-83
2021/06/05 16:31:42;;;;;;;;;;;;;;;13.99;100.00;100040.59;4931599;29;19992;-90
2021/06/05 16:34:16;;;;;;;;;;;;;;;14.02;100.00;100038.72;4938638;29;19981;-87
2021/06/05 16:36:48;;;;;;;;;;;;;;;13.77;100.00;100038.19;4938770;29;20017;-89
2021/06/05 16:39:21;;;;;;;;;;;;;;;13.73;100.00;100039.28;4935578;28;20226;-90
2021/06/05 16:41:47;;;;;;;;;;;;;;;13.94;100.00;100039.97;4938640;29;19932;-87
2021/06/05 16:44:13;;;;;;;;;;;;;;;13.99;100.00;100045.94;4953001;28;19922;-86
2021/06/05 16:46:39;;;;;;;;;;;;;;;13.82;100.00;100051.28;4956522;28;19989;-84
2021/06/05 16:49:05;;;;;;;;;;;;;;;13.75;100.00;100048.06;4948745;28;20367;-85
2021/06/05 16:51:30;;;;;;;;;;;;;;;13.88;100.00;100056.28;4949121;29;20008;-90
2021/06/05 16:53:56;;;;;;;;;;;;;;;13.76;100.00;100054.25;4932770;29;20048;-85
2021/06/05 16:56:24;;;;;;;;;;;;;;;13.80;100.00;100064.66;4929307;29;20009;-84
2021/06/05 16:58:50;;;;;;;;;;;;;;;13.71;100.00;100069.63;4933880;28;19926;-86
2021/06/05 17:01:21;;;;;;;;;;;;;;;13.71;100.00;100064.28;4951320;28;19930;-84
2021/06/05 17:03:48;;;;;;;;;;;;;;;13.73;100.00;100065.91;4924455;29;19926;-84
2021/06/05 17:06:14;;;;;;;;;;;;;;;13.71;100.00;100062.47;4949689;29;19941;-90
2021/06/05 17:08:39;;;;;;;;;;;;;;;13.67;100.00;100066.22;4953487;28;20255;-87
2021/06/05 17:11:06;;;;;;;;;;;;;;;13.72;100.00;100072.19;4951354;28;19919;-87
2021/06/05 17:13:41;;;;;;;;;;;;;;;13.73;100.00;100067.72;4935962;29;19930;-91
2021/06/05 17:16:07;;;;;;;;;;;;;;;13.49;100.00;100062.72;4929187;29;20397;-90
2021/06/05 17:18:37;;;;;;;;;;;;;;;13.58;100.00;100066.72;4951376;29;20017;-93
2021/06/05 17:21:07;;;;;;;;;;;;;;;13.20;100.00;100067.66;4952887;28;20364;-90
2021/06/05 17:23:37;;;;;;;;;;;;;;;12.77;100.00;100071.53;4952261;29;20317;-90
2021/06/05 17:26:05;;;;;;;;;;;;;;;13.08;100.00;100071.78;4954133;28;19918;-86
2021/06/05 17:28:31;;;;;;;;;;;;;;;13.41;100.00;100073.75;4933504;29;20039;-87
2021/06/05 17:30:57;;;;;;;;;;;;;;;13.17;100.00;100078.44;4936341;29;19962;-90
2021/06/05 17:33:29;;;;;;;;;;;;;;;13.37;100.00;100072.19;4955051;28;19954;-91
2021/06/05 17:35:56;;;;;;;;;;;;;;;13.28;100.00;100077.94;4938650;29;19958;-85
2021/06/05 17:38:23;;;;;;;;;;;;;;;13.22;100.00;100083.53;4950814;28;19946;-84
2021/06/05 17:40:52;;;;;;;;;;;;;;;13.32;100.00;100079.47;4932695;29;19933;-85
2021/06/05 17:43:21;;;;;;;;;;;;;;;13.34;100.00;100087.41;4936256;29;19958;-85
2021/06/05 17:45:48;;;;;;;;;;;;;;;13.50;100.00;100087.50;4929368;29;19930;-82
2021/06/05 17:48:16;;;;;;;;;;;;;;;13.24;100.00;100093.19;4951869;28;19976;-85
2021/06/05 17:50:44;;;;;;;;;;;;;;;13.56;100.00;100087.22;4952650;28;19930;-88
2021/06/05 17:53:09;;;;;;;;;;;;;;;13.74;100.00;100086.28;4937879;29;20423;-84
2021/06/05 17:55:35;;;;;;;;;;;;;;;13.34;100.00;100092.75;4953894;29;19926;-86
2021/06/05 17:58:01;;;;;;;;;;;;;;;13.49;100.00;100092.00;4951943;29;19985;-84
2021/06/05 18:00:32;;;;;;;;;;;;;;;13.56;100.00;100097.88;4952010;28;19933;-81
2021/06/05 18:02:59;;;;;;;;;;;;;;;13.73;100.00;100102.34;4937221;29;19931;-83
2021/06/05 18:05:26;;;;;;;;;;;;;;;13.36;100.00;100101.53;4954252;29;20290;-83
2021/06/05 18:07:53;;;;;;;;;;;;;;;13.54;100.00;100105.94;4931392;29;19923;-85
2021/06/05 18:10:21;;;;;;;;;;;;;;;13.63;100.00;100102.81;4938929;28;19933;-85
2021/06/05 18:12:47;;;;;;;;;;;;;;;13.34;100.00;100103.38;4938226;29;19930;-83
2021/06/05 18:15:13;;;;;;;;;;;;;;;12.74;100.00;100098.28;4939092;29;19929;-83
2021/06/05 18:17:40;;;;;;;;;;;;;;;13.19;100.00;100089.88;4933716;29;19931;-87
2021/06/05 18:20:08;;;;;;;;;;;;;;;13.46;100.00;100100.13;4931156;29;20275;-84
2021/06/05 18:22:34;;;;;;;;;;;;;;;13.50;100.00;100099.03;4929900;29;19922;-83
2021/06/05 18:25:00;;;;;;;;;;;;;;;13.61;100.00;100098.53;4932615;29;19931;-83
2021/06/05 18:27:25;;;;;;;;;;;;;;;13.60;100.00;100100.28;4952097;28;19927;-85
2021/06/05 18:29:51;;;;;;;;;;;;;;;13.47;100.00;100103.66;4952278;29;20029;-82
2021/06/05 18:32:17;;;;;;;;;;;;;;;13.55;100.00;100104.16;4950281;28;20203;-83